Adelaide, California
Current Conditions -  °F | °C
As of 1:53 AM on Friday 31 Oct 2014 (Local Time) from KPRB Reporting Station
Overcast Overcast  
Wind Chill: 56°   Ceiling: 1800
Heat Index: 56°   Visibility: 10mi
Dew Point: 48°   Wind: 6mph
Humidity: 75%   Direction: 90°E
Pressure: 29.95"   Gusts: NA
Location:  35.6618°N, 120.707°W
Report Text: KPRB 310853Z AUTO 09005KT 10SM OVC018 13/09 A2995 RMK AO2 SLP136 T01330089 50001 TSNO $
Loading
Personal Weather Stations






























Interactive Weather Map New forecast layout! Learn more

10-Day Weather Forecast

Advertisements
Track Severe Weather on mobile